Westford, VT (05494)

8:23 AM EDT on October 01, 2016 (GMT -0400)
Coyote Ridge | | Change Station

Elev 472 ft 44.63 °N, 73.01 °W | Updated 9 seconds ago

Rain
Rain
51.8 °F
Feels Like 51.8 °F
N
0.0
Wind Variable Wind from WNW
Gusts 0.0 mph

Today
High -- | Low -- °F
--% Chance of Precip.
Yesterday
High -- | Low -- °F
Precip. -- in
Pressure 30.34 in
Visibility 10.0 miles
Clouds Mostly Cloudy 3800 ft
Overcast 11000 ft
Dew Point 50 °F
Humidity 93%
Rainfall 0.02 in
Snow Depth Not available.
6:50 AM 6:31 PM
New Moon, 0% visible
METAR KBTV 011154Z 20004KT 10SM BKN038 OVC110 11/07 A3033 RMK AO2 RAE01B38E49 SLP272 P0000 60000 T01110072 10139 20111 58004
Pressure 30.34 in
Visibility 10.0 miles
Clouds Mostly Cloudy 3800 ft
Overcast 11000 ft
Dew Point 50 °F
Humidity 93%
Rainfall 0.02 in
Snow Depth Not available.
6:50 AM 6:31 PM
New Moon, 0% visible
METAR KBTV 011154Z 20004KT 10SM BKN038 OVC110 11/07 A3033 RMK AO2 RAE01B38E49 SLP272 P0000 60000 T01110072 10139 20111 58004

10-Day Weather Forecast

Almanac

Astronomy

Oct. 01, 2016 Rise Set
Actual Time
Civil Twilight
Nautical Twilight
Astronomical Twilight
Moon
Length of Visible Light
Length of Day
Tomorrow will be .
, % of the Moon is Illuminated

Today's Extremes

State Highs State Lows

Community

WunderPhotos

Upload Photos

1,942,920 photos uploaded!

WunderBlog® & News

Nearby

Air Quality

  Air Quality AQ Index Pollutant
Not available.

Snow Depth

Station Depth Elevation

Earthquake Activity

City Distance Mag. Time & Date
Minimum magnitude displayed is 2.5.

Coastal Water Temperatures

Place Temperature

Stations

Nearby Weather Stations

Station Location Temp. Windchill Dew Point Humidity Wind Precip. Elev Updated Type
                   

Watches & Warnings

There are currently no watches in effect.